Utica, Kentucky
Current Conditions -  °F | °C
As of 7:56 PM on Thursday 20 Nov 2014 (Local Time) from KOWB Reporting Station
Clear Clear  
Wind Chill: 22°   Ceiling: Unl
Heat Index: 27°   Visibility: 10mi
Dew Point: 20°   Wind: 5mph
Humidity: 75%   Direction: 20°NNE
Pressure: 30.29"   Gusts: NA
Location:  37.6°N, 86.98°W
Report Text: KOWB 210156Z 02004KT 10SM CLR M03/M07 A3029 RMK AO2 T10271066 SLP261
Loading
Personal Weather Stations






























Interactive Weather Map New forecast layout! Learn more

10-Day Weather Forecast

Advertisements
Track Severe Weather on mobile